Time;durP1;ratioP1;P1;durP2;ratioP2;P2;SDS_P1;SDS_P2;PMS_P1;PMS_P2;Temp;Humidity;BMP_temperature;BMP_pressure;BME280_temperature;BME280_humidity;BME280_pressure;Samples;Min_cycle;Max_cycle;Signal;HPM_P1;HPM_P2
2022/04/12 00:00:55;;;;;;;5.17;3.03;;;;;;;;;;5001533;28;20925;-54
2022/04/12 00:03:21;;;;;;;6.53;3.30;;;;;;;;;;4997403;28;20203;-54
2022/04/12 00:05:47;;;;;;;6.43;3.37;;;;;;;;;;5000449;28;20607;-55
2022/04/12 00:08:13;;;;;;;3.80;3.40;;;;;;;;;;5006331;28;20736;-54
2022/04/12 00:10:39;;;;;;;4.20;3.20;;;;;;;;;;5006505;28;20190;-55
2022/04/12 00:13:05;;;;;;;6.30;3.53;;;;;;;;;;5006795;28;20723;-54
2022/04/12 00:15:31;;;;;;;4.07;3.03;;;;;;;;;;5009269;28;20651;-54
2022/04/12 00:20:43;;;;;;;4.40;3.20;;;;;;;;;;5008179;28;20196;-54
2022/04/12 00:23:08;;;;;;;4.50;3.37;;;;;;;;;;5003394;28;20213;-55
2022/04/12 00:25:34;;;;;;;6.00;3.27;;;;;;;;;;5004913;28;20773;-54
2022/04/12 00:28:01;;;;;;;4.20;3.60;;;;;;;;;;4998806;28;20655;-54
2022/04/12 00:30:27;;;;;;;5.53;3.50;;;;;;;;;;5007823;28;20197;-54
2022/04/12 00:32:53;;;;;;;5.23;3.53;;;;;;;;;;5004786;28;20222;-54
2022/04/12 00:35:20;;;;;;;10.40;3.43;;;;;;;;;;5008589;28;20196;-55
2022/04/12 00:37:46;;;;;;;4.57;3.60;;;;;;;;;;5001784;28;20385;-55
2022/04/12 00:40:13;;;;;;;4.23;3.33;;;;;;;;;;5007805;28;20589;-55
2022/04/12 00:42:39;;;;;;;5.40;4.10;;;;;;;;;;5005661;28;20620;-55
2022/04/12 00:45:05;;;;;;;4.53;3.33;;;;;;;;;;5023278;28;20320;-53
2022/04/12 00:47:31;;;;;;;4.07;3.67;;;;;;;;;;4999622;28;20224;-55
2022/04/12 00:49:57;;;;;;;4.83;3.63;;;;;;;;;;5005390;28;20197;-55
2022/04/12 00:52:23;;;;;;;5.37;3.50;;;;;;;;;;5004721;28;20208;-54
2022/04/12 00:54:49;;;;;;;6.50;3.57;;;;;;;;;;5006225;28;20202;-54
2022/04/12 00:57:15;;;;;;;4.77;3.70;;;;;;;;;;4999470;28;20247;-54
2022/04/12 00:59:42;;;;;;;4.70;3.83;;;;;;;;;;5000490;28;20570;-54
2022/04/12 01:02:08;;;;;;;4.73;3.43;;;;;;;;;;5005598;28;20252;-54
2022/04/12 01:04:34;;;;;;;6.30;3.90;;;;;;;;;;5006790;28;20197;-54
2022/04/12 01:07:00;;;;;;;4.57;3.33;;;;;;;;;;5001010;28;20223;-54
2022/04/12 01:09:26;;;;;;;4.67;3.83;;;;;;;;;;5001175;28;20198;-54
2022/04/12 01:11:52;;;;;;;4.93;3.80;;;;;;;;;;4998692;28;20198;-54
2022/04/12 01:14:18;;;;;;;3.40;3.10;;;;;;;;;;5000543;28;20231;-54
2022/04/12 01:16:44;;;;;;;4.03;3.47;;;;;;;;;;5002907;28;20221;-54
2022/04/12 01:19:10;;;;;;;4.57;3.60;;;;;;;;;;5002555;28;20196;-54
2022/04/12 01:21:37;;;;;;;4.10;3.37;;;;;;;;;;5009405;28;20196;-54
2022/04/12 01:24:03;;;;;;;4.17;3.77;;;;;;;;;;5013076;28;20930;-54
2022/04/12 01:26:29;;;;;;;4.57;3.90;;;;;;;;;;5006827;28;20635;-54
2022/04/12 01:28:55;;;;;;;4.57;3.53;;;;;;;;;;5000791;28;20585;-54
2022/04/12 01:31:21;;;;;;;4.53;3.73;;;;;;;;;;4994310;28;20198;-54
2022/04/12 01:33:47;;;;;;;4.40;3.53;;;;;;;;;;4999417;28;20193;-54
2022/04/12 01:36:13;;;;;;;5.43;3.63;;;;;;;;;;5001872;28;20209;-54
2022/04/12 01:38:39;;;;;;;5.97;3.93;;;;;;;;;;5004056;28;20282;-53
2022/04/12 01:41:06;;;;;;;4.70;3.73;;;;;;;;;;5002631;28;20216;-55
2022/04/12 01:43:32;;;;;;;6.53;3.67;;;;;;;;;;4999016;28;20193;-54
2022/04/12 01:45:58;;;;;;;5.23;4.00;;;;;;;;;;4995570;28;20636;-54
2022/04/12 01:48:25;;;;;;;6.40;4.00;;;;;;;;;;5004884;28;20193;-54
2022/04/12 01:50:51;;;;;;;4.43;3.77;;;;;;;;;;5004629;28;20201;-55
2022/04/12 01:53:17;;;;;;;4.97;3.70;;;;;;;;;;4998244;28;20227;-55
2022/04/12 01:55:43;;;;;;;6.03;3.80;;;;;;;;;;5007742;28;20201;-54
2022/04/12 01:58:09;;;;;;;6.57;4.20;;;;;;;;;;5003073;28;20198;-55
2022/04/12 02:00:36;;;;;;;3.97;3.57;;;;;;;;;;5005925;28;20181;-54
2022/04/12 02:03:02;;;;;;;5.53;4.20;;;;;;;;;;4995589;28;20203;-54
2022/04/12 02:05:28;;;;;;;4.37;3.90;;;;;;;;;;4997438;28;20661;-54
2022/04/12 02:07:54;;;;;;;6.33;4.00;;;;;;;;;;5000248;28;20284;-54
2022/04/12 02:10:22;;;;;;;5.47;3.60;;;;;;;;;;4998206;28;20251;-54
2022/04/12 02:12:48;;;;;;;5.07;4.03;;;;;;;;;;5013193;28;20227;-54
2022/04/12 02:15:14;;;;;;;6.67;3.90;;;;;;;;;;4999747;28;20200;-54
2022/04/12 02:17:40;;;;;;;6.43;4.07;;;;;;;;;;5005344;28;20741;-55
2022/04/12 02:20:06;;;;;;;5.97;3.87;;;;;;;;;;5003591;28;21124;-54
2022/04/12 02:22:31;;;;;;;4.60;3.60;;;;;;;;;;5000897;28;20665;-54
2022/04/12 02:24:57;;;;;;;4.90;3.77;;;;;;;;;;4998236;28;20464;-54
2022/04/12 02:27:23;;;;;;;7.00;3.90;;;;;;;;;;5003772;28;20521;-54
2022/04/12 02:29:49;;;;;;;5.40;4.00;;;;;;;;;;5011257;28;21083;-53
2022/04/12 02:32:15;;;;;;;4.77;3.67;;;;;;;;;;5001769;28;20931;-54
2022/04/12 02:34:41;;;;;;;6.17;4.27;;;;;;;;;;5008815;28;20201;-55
2022/04/12 02:37:07;;;;;;;5.00;3.87;;;;;;;;;;5006312;28;20251;-55
2022/04/12 02:39:33;;;;;;;4.87;3.80;;;;;;;;;;4999255;28;20189;-54
2022/04/12 02:41:59;;;;;;;4.03;3.37;;;;;;;;;;4997438;28;20444;-54
2022/04/12 02:44:25;;;;;;;5.40;4.07;;;;;;;;;;4998122;28;20960;-55
2022/04/12 02:46:51;;;;;;;6.70;4.23;;;;;;;;;;5001644;28;20216;-54
2022/04/12 02:49:17;;;;;;;5.53;3.83;;;;;;;;;;5003652;28;20224;-54
2022/04/12 02:51:45;;;;;;;5.83;4.10;;;;;;;;;;5005327;28;20193;-54
2022/04/12 02:54:11;;;;;;;5.43;3.57;;;;;;;;;;5005666;28;20200;-54
2022/04/12 02:56:37;;;;;;;4.43;3.93;;;;;;;;;;4997677;28;20686;-55
2022/04/12 02:59:03;;;;;;;5.57;3.77;;;;;;;;;;5001419;28;20197;-55
2022/04/12 03:01:29;;;;;;;4.73;3.57;;;;;;;;;;4996911;28;20253;-54
2022/04/12 03:03:55;;;;;;;4.37;3.90;;;;;;;;;;4998910;28;20185;-55
2022/04/12 03:06:21;;;;;;;5.37;4.03;;;;;;;;;;4998610;28;20700;-54
2022/04/12 03:08:47;;;;;;;5.47;3.67;;;;;;;;;;5007143;28;20638;-55
2022/04/12 03:11:13;;;;;;;4.23;3.70;;;;;;;;;;5002642;28;20655;-54
2022/04/12 03:13:39;;;;;;;5.20;3.93;;;;;;;;;;5003251;28;20284;-55
2022/04/12 03:16:05;;;;;;;5.57;4.03;;;;;;;;;;5000795;28;20272;-54
2022/04/12 03:18:31;;;;;;;5.50;4.03;;;;;;;;;;5000048;28;20188;-54
2022/04/12 03:20:57;;;;;;;4.20;3.50;;;;;;;;;;5000625;28;20193;-55
2022/04/12 03:23:23;;;;;;;5.27;3.83;;;;;;;;;;4995757;28;20229;-54
2022/04/12 03:25:50;;;;;;;4.63;4.13;;;;;;;;;;5002625;28;20193;-55
2022/04/12 03:28:16;;;;;;;4.50;4.00;;;;;;;;;;4997726;28;20843;-54
2022/04/12 03:30:42;;;;;;;4.70;3.80;;;;;;;;;;4996544;28;20193;-54
2022/04/12 03:33:08;;;;;;;5.97;3.90;;;;;;;;;;5004104;28;20189;-54
2022/04/12 03:35:34;;;;;;;5.17;4.10;;;;;;;;;;4996985;28;20569;-54
2022/04/12 03:38:01;;;;;;;4.80;4.13;;;;;;;;;;5003362;28;20223;-54
2022/04/12 03:40:33;;;;;;;5.30;3.87;;;;;;;;;;5000894;28;20192;-53
2022/04/12 03:43:02;;;;;;;6.83;4.00;;;;;;;;;;5002815;28;20337;-55
2022/04/12 03:45:28;;;;;;;4.53;3.70;;;;;;;;;;4998320;28;20212;-54
2022/04/12 03:47:54;;;;;;;5.17;4.30;;;;;;;;;;5009716;28;20190;-54
2022/04/12 03:50:20;;;;;;;4.50;3.67;;;;;;;;;;5018511;28;20193;-54
2022/04/12 03:52:46;;;;;;;5.77;3.80;;;;;;;;;;5009332;28;20209;-54
2022/04/12 03:55:12;;;;;;;5.00;3.47;;;;;;;;;;5007697;28;20570;-55
2022/04/12 03:57:38;;;;;;;5.97;4.50;;;;;;;;;;5001636;28;20239;-54
2022/04/12 04:00:08;;;;;;;4.30;3.57;;;;;;;;;;5003568;28;20208;-54
2022/04/12 04:02:34;;;;;;;4.63;4.07;;;;;;;;;;4999938;28;20209;-54
2022/04/12 04:05:00;;;;;;;7.27;4.17;;;;;;;;;;5004067;28;20205;-54
2022/04/12 04:07:27;;;;;;;5.73;4.10;;;;;;;;;;5005108;28;20209;-54
2022/04/12 04:09:53;;;;;;;5.60;4.20;;;;;;;;;;5004229;28;20202;-55
2022/04/12 04:12:19;;;;;;;5.87;4.00;;;;;;;;;;5009636;28;20232;-54
2022/04/12 04:14:46;;;;;;;4.50;3.87;;;;;;;;;;5002444;28;20247;-54
2022/04/12 04:17:12;;;;;;;5.33;3.90;;;;;;;;;;5002784;28;20275;-54
2022/04/12 04:19:38;;;;;;;5.17;4.30;;;;;;;;;;5003899;28;20584;-54
2022/04/12 04:22:04;;;;;;;5.77;4.30;;;;;;;;;;5010008;28;20659;-54
2022/04/12 04:24:30;;;;;;;4.50;4.10;;;;;;;;;;5006009;28;21602;-54
2022/04/12 04:26:56;;;;;;;4.27;3.87;;;;;;;;;;5009491;28;20201;-55
2022/04/12 04:29:23;;;;;;;4.60;3.90;;;;;;;;;;5001205;28;20248;-54
2022/04/12 04:31:49;;;;;;;8.70;3.93;;;;;;;;;;5002500;28;20228;-55
2022/04/12 04:34:16;;;;;;;4.10;3.70;;;;;;;;;;5002684;28;20759;-54
2022/04/12 04:36:42;;;;;;;5.33;3.70;;;;;;;;;;5002162;28;20245;-54
2022/04/12 04:39:08;;;;;;;3.90;3.50;;;;;;;;;;5003911;28;20280;-54
2022/04/12 04:41:34;;;;;;;5.07;4.03;;;;;;;;;;5001299;28;20251;-54
2022/04/12 04:44:00;;;;;;;4.00;3.60;;;;;;;;;;5000381;28;20246;-54
2022/04/12 04:46:26;;;;;;;4.93;3.60;;;;;;;;;;4998070;28;20189;-54
2022/04/12 04:48:52;;;;;;;4.97;3.50;;;;;;;;;;5006448;28;20560;-54
2022/04/12 04:51:19;;;;;;;4.20;3.80;;;;;;;;;;5006970;28;20204;-54
2022/04/12 04:53:49;;;;;;;4.70;3.60;;;;;;;;;;5004336;28;20203;-54
2022/04/12 04:56:15;;;;;;;5.27;3.80;;;;;;;;;;5006463;28;20254;-53
2022/04/12 04:58:42;;;;;;;5.37;3.57;;;;;;;;;;5009428;28;20280;-54
2022/04/12 05:01:07;;;;;;;5.33;3.77;;;;;;;;;;5004267;28;20237;-54
2022/04/12 05:03:33;;;;;;;4.57;3.67;;;;;;;;;;5014455;28;20190;-54
2022/04/12 05:05:59;;;;;;;7.20;3.70;;;;;;;;;;4992703;28;20617;-54
2022/04/12 05:08:25;;;;;;;5.77;3.80;;;;;;;;;;5006454;28;20199;-55
2022/04/12 05:10:51;;;;;;;5.97;4.10;;;;;;;;;;5000882;28;20225;-54
2022/04/12 05:13:17;;;;;;;5.57;4.17;;;;;;;;;;5001825;28;20622;-54
2022/04/12 05:15:43;;;;;;;3.97;3.50;;;;;;;;;;4999731;28;20193;-54
2022/04/12 05:18:09;;;;;;;5.27;4.43;;;;;;;;;;4993424;28;20231;-54
2022/04/12 05:20:35;;;;;;;5.63;4.10;;;;;;;;;;4994121;28;20224;-54
2022/04/12 05:23:01;;;;;;;5.20;3.80;;;;;;;;;;5001801;28;20224;-53
2022/04/12 05:25:27;;;;;;;6.40;4.30;;;;;;;;;;5002874;28;20280;-54
2022/04/12 05:27:53;;;;;;;5.10;3.80;;;;;;;;;;4996834;28;20251;-54
2022/04/12 05:30:19;;;;;;;5.87;4.13;;;;;;;;;;4994973;28;20675;-53
2022/04/12 05:32:45;;;;;;;5.03;4.00;;;;;;;;;;5003043;28;20194;-54
2022/04/12 05:35:11;;;;;;;5.30;4.20;;;;;;;;;;5012680;28;20293;-54
2022/04/12 05:37:48;;;;;;;8.37;4.00;;;;;;;;;;5008848;28;20232;-54
2022/04/12 05:40:14;;;;;;;7.97;5.00;;;;;;;;;;5000795;28;20239;-55
2022/04/12 05:42:40;;;;;;;5.37;4.20;;;;;;;;;;4980431;28;20756;-54
2022/04/12 05:45:07;;;;;;;5.83;4.30;;;;;;;;;;5000331;28;20185;-52
2022/04/12 05:47:43;;;;;;;6.00;4.00;;;;;;;;;;5005015;28;20193;-53
2022/04/12 05:50:09;;;;;;;7.07;4.37;;;;;;;;;;5006887;28;21427;-54
2022/04/12 05:52:35;;;;;;;4.93;4.03;;;;;;;;;;5001846;28;20205;-54
2022/04/12 05:55:01;;;;;;;4.40;4.00;;;;;;;;;;5004613;28;25241;-54
2022/04/12 05:57:27;;;;;;;5.80;4.37;;;;;;;;;;4999050;28;20763;-53
2022/04/12 05:59:53;;;;;;;9.27;4.13;;;;;;;;;;4995028;28;20662;-54
2022/04/12 06:02:18;;;;;;;6.67;3.90;;;;;;;;;;4992119;28;20320;-52
2022/04/12 06:04:44;;;;;;;5.00;4.47;;;;;;;;;;5001479;28;20205;-53
2022/04/12 06:07:10;;;;;;;8.60;4.10;;;;;;;;;;5001886;28;20210;-54
2022/04/12 06:09:36;;;;;;;4.80;4.00;;;;;;;;;;5004331;28;21257;-54
2022/04/12 06:12:02;;;;;;;9.67;3.50;;;;;;;;;;4995938;28;20283;-54
2022/04/12 06:14:28;;;;;;;6.40;4.10;;;;;;;;;;5006808;28;20607;-53
2022/04/12 06:16:54;;;;;;;5.17;3.87;;;;;;;;;;4985793;28;20252;-53
2022/04/12 06:19:20;;;;;;;6.00;4.20;;;;;;;;;;4991885;28;20962;-53
2022/04/12 06:21:46;;;;;;;4.80;3.60;;;;;;;;;;4986605;28;20204;-54
2022/04/12 06:24:12;;;;;;;4.23;3.83;;;;;;;;;;4991688;28;20232;-55
2022/04/12 06:26:38;;;;;;;4.43;4.00;;;;;;;;;;4984512;28;20792;-54
2022/04/12 06:29:04;;;;;;;6.07;4.20;;;;;;;;;;4982749;28;20240;-56
2022/04/12 06:31:30;;;;;;;6.07;4.17;;;;;;;;;;4995504;28;20189;-55
2022/04/12 06:33:56;;;;;;;8.33;3.80;;;;;;;;;;4993121;28;20204;-56
2022/04/12 06:36:22;;;;;;;5.37;4.10;;;;;;;;;;4994963;28;20221;-56
2022/04/12 06:38:48;;;;;;;6.37;3.80;;;;;;;;;;4998749;28;20189;-56
2022/04/12 06:41:14;;;;;;;5.50;3.97;;;;;;;;;;4989291;28;21056;-56
2022/04/12 06:43:40;;;;;;;4.93;4.03;;;;;;;;;;5003282;28;20311;-56
2022/04/12 06:46:06;;;;;;;6.97;4.07;;;;;;;;;;4997387;28;20266;-56
2022/04/12 06:48:32;;;;;;;5.00;3.80;;;;;;;;;;5000470;28;20324;-56
2022/04/12 06:50:58;;;;;;;8.63;4.10;;;;;;;;;;4992632;28;20224;-56
2022/04/12 06:53:24;;;;;;;4.77;3.87;;;;;;;;;;4982200;28;20777;-56
2022/04/12 06:55:50;;;;;;;9.23;3.60;;;;;;;;;;4995680;28;20193;-56
2022/04/12 06:58:16;;;;;;;7.37;3.47;;;;;;;;;;4977624;28;20601;-56
2022/04/12 07:00:43;;;;;;;10.47;4.10;;;;;;;;;;4992026;28;20754;-56
2022/04/12 07:03:09;;;;;;;12.33;3.43;;;;;;;;;;4996818;28;20283;-55
2022/04/12 07:05:35;;;;;;;8.93;3.60;;;;;;;;;;5001620;28;20669;-55
2022/04/12 07:08:01;;;;;;;9.30;4.20;;;;;;;;;;5001426;28;20220;-55
2022/04/12 07:10:27;;;;;;;5.10;4.10;;;;;;;;;;4993457;28;20193;-56
2022/04/12 07:12:53;;;;;;;6.60;4.13;;;;;;;;;;4995833;28;21531;-56
2022/04/12 07:15:20;;;;;;;4.57;4.13;;;;;;;;;;5003527;28;20228;-56
2022/04/12 07:17:46;;;;;;;8.00;4.27;;;;;;;;;;5002512;28;20239;-56
2022/04/12 07:20:12;;;;;;;6.50;4.10;;;;;;;;;;5001999;28;20198;-56
2022/04/12 07:22:38;;;;;;;9.33;4.20;;;;;;;;;;5004467;28;20682;-56
2022/04/12 07:25:04;;;;;;;6.00;4.10;;;;;;;;;;5002178;28;20268;-55
2022/04/12 07:27:34;;;;;;;6.07;4.17;;;;;;;;;;4995119;28;20632;-55
2022/04/12 07:30:00;;;;;;;5.03;4.07;;;;;;;;;;4998531;28;20244;-55
2022/04/12 07:32:26;;;;;;;6.40;3.90;;;;;;;;;;4993176;28;20561;-55
2022/04/12 07:34:52;;;;;;;5.33;4.00;;;;;;;;;;4998208;28;20209;-55
2022/04/12 07:37:18;;;;;;;5.93;3.90;;;;;;;;;;4995787;28;20228;-55
2022/04/12 07:39:44;;;;;;;5.33;3.90;;;;;;;;;;4996890;28;20192;-55
2022/04/12 07:42:10;;;;;;;6.60;4.10;;;;;;;;;;4996716;28;20189;-55
2022/04/12 07:44:36;;;;;;;6.07;3.97;;;;;;;;;;4996904;28;20200;-55
2022/04/12 07:47:02;;;;;;;5.20;4.17;;;;;;;;;;5003607;28;20549;-55
2022/04/12 07:49:28;;;;;;;5.00;3.70;;;;;;;;;;4995990;28;20200;-56
2022/04/12 07:51:54;;;;;;;6.43;4.47;;;;;;;;;;4993176;28;20192;-56
2022/04/12 07:54:20;;;;;;;4.20;3.80;;;;;;;;;;4993769;28;20251;-56
2022/04/12 07:56:46;;;;;;;6.43;3.90;;;;;;;;;;5003857;28;20296;-56
2022/04/12 07:59:12;;;;;;;5.73;3.73;;;;;;;;;;5004877;28;20185;-55
2022/04/12 08:01:38;;;;;;;4.30;3.70;;;;;;;;;;5000024;28;20200;-56
2022/04/12 08:04:04;;;;;;;18.70;4.00;;;;;;;;;;4987372;28;20190;-56
2022/04/12 08:06:30;;;;;;;4.83;3.83;;;;;;;;;;4998642;28;20216;-55
2022/04/12 08:08:56;;;;;;;5.90;4.00;;;;;;;;;;5004327;28;20197;-56
2022/04/12 08:11:22;;;;;;;4.30;3.53;;;;;;;;;;4994292;28;20209;-56
2022/04/12 08:13:48;;;;;;;4.23;3.67;;;;;;;;;;4997329;28;20200;-56
2022/04/12 08:16:15;;;;;;;6.03;3.50;;;;;;;;;;4996187;28;20193;-57
2022/04/12 08:18:42;;;;;;;5.27;3.33;;;;;;;;;;5003151;28;20197;-57
2022/04/12 08:21:08;;;;;;;5.00;3.33;;;;;;;;;;5001759;28;20185;-57
2022/04/12 08:23:34;;;;;;;7.77;3.33;;;;;;;;;;5002493;28;20255;-57
2022/04/12 08:26:00;;;;;;;3.50;3.07;;;;;;;;;;5001630;28;20312;-57
2022/04/12 08:28:26;;;;;;;4.07;3.43;;;;;;;;;;5009233;28;20256;-57
2022/04/12 08:30:52;;;;;;;7.00;3.47;;;;;;;;;;5001812;28;20627;-57
2022/04/12 08:33:18;;;;;;;5.70;3.30;;;;;;;;;;5007049;28;20584;-57
2022/04/12 08:35:44;;;;;;;7.47;3.47;;;;;;;;;;5002658;28;20188;-57
2022/04/12 08:38:10;;;;;;;3.50;3.20;;;;;;;;;;5006996;28;20301;-57
2022/04/12 08:40:36;;;;;;;8.07;3.30;;;;;;;;;;5002414;28;20831;-57
2022/04/12 08:43:02;;;;;;;8.03;3.47;;;;;;;;;;5007350;28;20266;-58
2022/04/12 08:45:28;;;;;;;7.30;3.83;;;;;;;;;;5001152;28;20193;-58
2022/04/12 08:47:53;;;;;;;5.53;3.80;;;;;;;;;;5003735;28;20228;-59
2022/04/12 08:50:20;;;;;;;6.57;4.37;;;;;;;;;;5003464;28;20193;-59
2022/04/12 08:52:46;;;;;;;9.73;3.80;;;;;;;;;;5004113;28;20206;-58
2022/04/12 08:55:12;;;;;;;5.87;3.53;;;;;;;;;;5014500;28;20259;-59
2022/04/12 08:57:38;;;;;;;5.93;3.63;;;;;;;;;;4999012;28;20590;-59
2022/04/12 09:00:05;;;;;;;4.38;3.75;;;;;;;;;;4998470;28;20276;-59
2022/04/12 09:02:31;;;;;;;5.47;3.50;;;;;;;;;;5000468;28;20620;-59
2022/04/12 09:04:57;;;;;;;4.32;3.67;;;;;;;;;;5002234;28;20193;-60
2022/04/12 09:07:25;;;;;;;4.57;3.47;;;;;;;;;;4994666;28;20578;-60
2022/04/12 09:09:51;;;;;;;5.53;3.67;;;;;;;;;;5006114;28;20204;-63
2022/04/12 09:12:18;;;;;;;6.20;3.72;;;;;;;;;;5000449;28;20511;-63
2022/04/12 09:14:54;;;;;;;5.38;3.70;;;;;;;;;;4996009;28;21152;-57
2022/04/12 09:17:20;;;;;;;6.78;3.60;;;;;;;;;;5001359;28;20208;-58
2022/04/12 09:19:47;;;;;;;6.03;3.63;;;;;;;;;;4999400;28;20221;-59
2022/04/12 09:22:17;;;;;;;4.55;3.03;;;;;;;;;;4994874;28;20223;-59
2022/04/12 09:24:50;;;;;;;5.90;3.13;;;;;;;;;;4998618;28;20212;-57
2022/04/12 09:27:17;;;;;;;17.55;4.88;;;;;;;;;;4996872;28;20229;-56
2022/04/12 09:29:47;;;;;;;5.30;3.40;;;;;;;;;;4998236;28;20237;-61
2022/04/12 09:32:15;;;;;;;6.30;3.17;;;;;;;;;;5003981;28;20658;-62
2022/04/12 09:34:41;;;;;;;6.90;3.00;;;;;;;;;;4993080;28;20228;-54
2022/04/12 09:37:17;;;;;;;8.18;2.60;;;;;;;;;;5006105;28;20296;-54
2022/04/12 09:39:46;;;;;;;6.50;2.80;;;;;;;;;;5007094;28;20203;-57
2022/04/12 09:42:11;;;;;;;20.90;3.70;;;;;;;;;;5003832;28;20571;-55
2022/04/12 09:44:37;;;;;;;8.88;3.30;;;;;;;;;;4998943;28;20196;-59
2022/04/12 09:47:03;;;;;;;11.93;3.13;;;;;;;;;;5004322;28;20573;-58
2022/04/12 09:49:42;;;;;;;5.80;2.63;;;;;;;;;;5002352;28;20232;-58
2022/04/12 09:52:10;;;;;;;9.18;2.55;;;;;;;;;;4998487;28;20204;-58
2022/04/12 09:54:36;;;;;;;10.48;2.72;;;;;;;;;;4995623;28;20194;-57
2022/04/12 09:57:03;;;;;;;7.82;2.70;;;;;;;;;;4999947;28;20218;-58
2022/04/12 09:59:32;;;;;;;5.60;2.42;;;;;;;;;;4998082;28;20545;-57
2022/04/12 10:01:58;;;;;;;8.52;2.40;;;;;;;;;;4996828;28;20186;-57
2022/04/12 10:04:24;;;;;;;3.40;2.17;;;;;;;;;;4994342;28;20200;-57
2022/04/12 10:06:50;;;;;;;8.20;2.55;;;;;;;;;;5003567;28;20294;-58
2022/04/12 10:09:17;;;;;;;4.80;2.20;;;;;;;;;;5010687;28;20189;-58
2022/04/12 10:11:43;;;;;;;5.47;2.33;;;;;;;;;;5007508;28;20941;-58
2022/04/12 10:14:10;;;;;;;4.00;1.98;;;;;;;;;;5010885;28;20646;-58
2022/04/12 10:16:39;;;;;;;6.40;2.20;;;;;;;;;;5006984;28;20213;-58
2022/04/12 10:19:05;;;;;;;3.80;2.13;;;;;;;;;;5011865;28;20208;-58
2022/04/12 10:21:31;;;;;;;5.18;3.20;;;;;;;;;;5003137;28;20645;-60
2022/04/12 10:23:57;;;;;;;7.03;2.10;;;;;;;;;;5004275;28;21374;-57
2022/04/12 10:26:24;;;;;;;3.13;2.20;;;;;;;;;;5000840;28;20192;-56
2022/04/12 10:28:51;;;;;;;3.90;2.17;;;;;;;;;;5000052;28;20239;-57
2022/04/12 10:31:17;;;;;;;5.40;2.03;;;;;;;;;;5001517;28;20190;-56
2022/04/12 10:33:50;;;;;;;3.65;2.20;;;;;;;;;;4999316;28;20189;-57
2022/04/12 10:36:16;;;;;;;5.95;1.90;;;;;;;;;;4998204;28;21040;-57
2022/04/12 10:38:42;;;;;;;5.90;2.22;;;;;;;;;;4997265;28;20307;-57
2022/04/12 10:41:12;;;;;;;2.13;1.85;;;;;;;;;;5002449;28;20664;-57
2022/04/12 10:43:39;;;;;;;5.65;2.30;;;;;;;;;;4997607;28;21260;-57
2022/04/12 10:46:06;;;;;;;2.00;1.80;;;;;;;;;;5008555;28;20859;-57
2022/04/12 10:48:32;;;;;;;3.40;2.20;;;;;;;;;;5000600;28;20256;-57
2022/04/12 10:51:01;;;;;;;4.60;1.98;;;;;;;;;;4995634;28;20189;-56
2022/04/12 10:53:39;;;;;;;3.67;1.90;;;;;;;;;;5003370;28;20676;-57
2022/04/12 10:56:06;;;;;;;5.03;2.00;;;;;;;;;;4996260;28;20220;-59
2022/04/12 10:58:35;;;;;;;4.95;1.88;;;;;;;;;;4998928;28;20204;-56
2022/04/12 11:01:01;;;;;;;11.05;2.17;;;;;;;;;;4992357;28;20929;-57
2022/04/12 11:03:44;;;;;;;2.30;1.75;;;;;;;;;;4984955;28;20197;-57
2022/04/12 11:06:10;;;;;;;3.80;1.98;;;;;;;;;;4993009;28;20247;-57
2022/04/12 11:08:36;;;;;;;4.93;2.08;;;;;;;;;;5007183;28;20193;-57
2022/04/12 11:11:04;;;;;;;5.32;2.00;;;;;;;;;;4993409;28;20185;-58
2022/04/12 11:13:33;;;;;;;3.15;1.60;;;;;;;;;;4992942;28;20196;-55
2022/04/12 11:16:03;;;;;;;2.72;1.58;;;;;;;;;;5002720;28;20204;-55
2022/04/12 11:18:48;;;;;;;5.32;2.10;;;;;;;;;;4998692;28;20287;-55
2022/04/12 11:21:14;;;;;;;2.72;2.00;;;;;;;;;;5007204;28;20194;-55
2022/04/12 11:23:46;;;;;;;2.42;1.90;;;;;;;;;;5003947;28;20190;-56
2022/04/12 11:26:31;;;;;;;3.28;1.73;;;;;;;;;;4993613;28;20606;-55
2022/04/12 11:28:57;;;;;;;2.25;1.70;;;;;;;;;;4995087;28;20260;-56
2022/04/12 11:31:23;;;;;;;7.35;1.80;;;;;;;;;;4996016;28;20749;-56
2022/04/12 11:33:49;;;;;;;4.53;1.92;;;;;;;;;;5003827;28;20273;-56
2022/04/12 11:36:18;;;;;;;2.05;1.75;;;;;;;;;;5008556;28;20576;-56
2022/04/12 11:38:44;;;;;;;1.80;1.60;;;;;;;;;;4995851;28;20196;-56
2022/04/12 11:41:10;;;;;;;2.10;1.70;;;;;;;;;;4996743;28;20726;-56
2022/04/12 11:43:36;;;;;;;3.90;1.65;;;;;;;;;;4997918;28;20181;-56
2022/04/12 11:46:02;;;;;;;2.28;1.77;;;;;;;;;;4985384;28;20300;-56
2022/04/12 11:48:28;;;;;;;1.58;1.48;;;;;;;;;;4993975;28;20196;-56
2022/04/12 11:50:55;;;;;;;5.35;2.03;;;;;;;;;;4998200;28;20297;-56
2022/04/12 11:53:21;;;;;;;4.75;1.65;;;;;;;;;;5000013;28;20643;-56
2022/04/12 11:55:47;;;;;;;2.30;1.65;;;;;;;;;;5004319;28;20298;-56
2022/04/12 11:58:13;;;;;;;2.05;1.80;;;;;;;;;;5002941;28;20220;-56
2022/04/12 12:00:39;;;;;;;2.75;1.55;;;;;;;;;;5006618;28;20878;-56
2022/04/12 12:03:05;;;;;;;2.45;1.67;;;;;;;;;;5008278;28;21493;-57
2022/04/12 12:05:33;;;;;;;2.47;1.70;;;;;;;;;;5006510;28;20685;-56
2022/04/12 12:07:59;;;;;;;5.90;1.83;;;;;;;;;;5003637;28;20811;-57
2022/04/12 12:10:25;;;;;;;5.45;1.90;;;;;;;;;;4996298;28;20291;-56
2022/04/12 12:12:51;;;;;;;3.15;1.60;;;;;;;;;;5002819;28;20189;-56
2022/04/12 12:15:24;;;;;;;3.30;1.65;;;;;;;;;;5003474;28;20193;-57
2022/04/12 12:17:50;;;;;;;5.00;1.98;;;;;;;;;;4998064;28;20213;-56
2022/04/12 12:20:20;;;;;;;3.05;1.65;;;;;;;;;;5009158;28;20185;-57
2022/04/12 12:22:46;;;;;;;4.47;1.70;;;;;;;;;;5008912;28;20239;-56
2022/04/12 12:25:18;;;;;;;2.67;1.75;;;;;;;;;;5012488;28;20194;-56
2022/04/12 12:27:48;;;;;;;5.63;2.00;;;;;;;;;;5007704;28;20247;-56
2022/04/12 12:30:21;;;;;;;4.47;2.10;;;;;;;;;;5000325;28;20233;-56
2022/04/12 12:32:50;;;;;;;5.13;1.80;;;;;;;;;;4997178;28;20193;-57
2022/04/12 12:35:17;;;;;;;2.42;1.85;;;;;;;;;;4998490;28;20185;-56
2022/04/12 12:37:44;;;;;;;3.95;1.83;;;;;;;;;;4997374;28;20718;-57
2022/04/12 12:40:17;;;;;;;2.35;1.83;;;;;;;;;;4990934;28;20857;-56
2022/04/12 12:42:43;;;;;;;2.80;2.08;;;;;;;;;;4989551;28;20189;-56
2022/04/12 12:45:10;;;;;;;3.67;2.35;;;;;;;;;;5006124;28;20209;-56
2022/04/12 12:47:36;;;;;;;3.17;2.00;;;;;;;;;;5004588;28;20527;-56
2022/04/12 12:50:04;;;;;;;2.40;2.00;;;;;;;;;;5004120;28;20196;-56
2022/04/12 12:52:31;;;;;;;4.88;2.15;;;;;;;;;;4994683;28;20513;-56
2022/04/12 12:54:57;;;;;;;2.80;1.80;;;;;;;;;;4996819;28;20651;-56
2022/04/12 12:57:35;;;;;;;3.85;2.10;;;;;;;;;;5001838;28;20240;-58
2022/04/12 13:00:03;;;;;;;3.33;1.83;;;;;;;;;;4996969;28;20720;-57
2022/04/12 13:02:32;;;;;;;2.90;2.05;;;;;;;;;;5001282;28;20186;-56
2022/04/12 13:05:01;;;;;;;2.92;1.80;;;;;;;;;;4985517;28;20718;-57
2022/04/12 13:07:34;;;;;;;2.38;1.90;;;;;;;;;;5001781;28;20739;-56
2022/04/12 13:10:12;;;;;;;2.47;1.80;;;;;;;;;;4999952;28;20188;-57
2022/04/12 13:12:38;;;;;;;3.17;1.90;;;;;;;;;;5006908;28;20620;-57
2022/04/12 13:15:05;;;;;;;3.55;2.13;;;;;;;;;;4995421;28;20193;-57
2022/04/12 13:17:31;;;;;;;1.88;1.67;;;;;;;;;;4999719;28;20213;-56
2022/04/12 13:19:57;;;;;;;2.10;1.80;;;;;;;;;;5009129;28;20598;-57
2022/04/12 13:22:26;;;;;;;2.80;1.73;;;;;;;;;;5006784;28;20194;-57
2022/04/12 13:24:52;;;;;;;3.35;1.92;;;;;;;;;;4996822;28;20669;-56
2022/04/12 13:27:18;;;;;;;3.90;2.42;;;;;;;;;;5005811;28;20572;-56
2022/04/12 13:29:44;;;;;;;3.58;2.20;;;;;;;;;;4988372;28;20283;-56
2022/04/12 13:32:10;;;;;;;3.20;2.03;;;;;;;;;;4991821;28;21041;-56
2022/04/12 13:34:36;;;;;;;2.95;2.05;;;;;;;;;;4996452;28;20239;-56
2022/04/12 13:37:02;;;;;;;2.88;2.10;;;;;;;;;;4995810;28;20208;-56
2022/04/12 13:39:28;;;;;;;4.03;2.05;;;;;;;;;;5005309;28;20650;-57
2022/04/12 13:41:54;;;;;;;3.78;2.28;;;;;;;;;;5007384;28;20244;-56
2022/04/12 13:44:20;;;;;;;2.63;1.70;;;;;;;;;;5008925;28;20188;-56
2022/04/12 13:46:46;;;;;;;6.22;2.30;;;;;;;;;;5009114;28;20647;-56
2022/04/12 13:49:12;;;;;;;3.58;2.10;;;;;;;;;;5004350;28;20224;-56
2022/04/12 13:51:38;;;;;;;2.20;1.75;;;;;;;;;;4997016;28;20200;-56
2022/04/12 13:54:04;;;;;;;2.30;2.10;;;;;;;;;;5005230;28;20193;-56
2022/04/12 13:56:30;;;;;;;2.95;1.88;;;;;;;;;;4994557;28;20311;-56
2022/04/12 13:58:57;;;;;;;7.70;2.13;;;;;;;;;;4984221;28;20197;-56
2022/04/12 14:01:23;;;;;;;6.65;2.08;;;;;;;;;;4993513;28;20220;-55
2022/04/12 14:03:49;;;;;;;4.40;2.28;;;;;;;;;;4988528;28;20612;-56
2022/04/12 14:06:15;;;;;;;3.42;1.90;;;;;;;;;;4988092;28;20209;-57
2022/04/12 14:08:41;;;;;;;3.00;2.03;;;;;;;;;;4988477;28;20198;-56
2022/04/12 14:11:07;;;;;;;4.32;2.20;;;;;;;;;;4991491;28;20186;-57
2022/04/12 14:13:34;;;;;;;5.50;2.00;;;;;;;;;;4990030;28;20201;-56
2022/04/12 14:16:00;;;;;;;3.67;1.70;;;;;;;;;;4992209;28;20193;-56
2022/04/12 14:18:26;;;;;;;4.50;2.10;;;;;;;;;;5000885;28;20219;-56
2022/04/12 14:20:55;;;;;;;4.72;2.10;;;;;;;;;;5001239;28;20198;-56
2022/04/12 14:23:21;;;;;;;5.40;1.95;;;;;;;;;;4993073;28;20193;-56
2022/04/12 14:25:47;;;;;;;5.95;2.10;;;;;;;;;;5001278;28;20216;-56
2022/04/12 14:28:13;;;;;;;6.60;2.17;;;;;;;;;;4991129;28;20255;-56
2022/04/12 14:30:39;;;;;;;5.57;1.77;;;;;;;;;;4988357;28;21841;-56
2022/04/12 14:33:05;;;;;;;4.28;2.05;;;;;;;;;;5006364;28;20366;-56
2022/04/12 14:35:31;;;;;;;2.97;1.60;;;;;;;;;;5007003;28;20193;-57
2022/04/12 14:37:57;;;;;;;3.67;1.95;;;;;;;;;;5005593;28;20231;-56
2022/04/12 14:40:23;;;;;;;1.83;1.70;;;;;;;;;;5001665;28;20197;-56
2022/04/12 14:42:49;;;;;;;2.55;2.05;;;;;;;;;;4997120;28;21088;-56